Time;durP1;ratioP1;P1;durP2;ratioP2;P2;SDS_P1;SDS_P2;PMS_P1;PMS_P2;Temp;Humidity;BMP_temperature;BMP_pressure;BME280_temperature;BME280_humidity;BME280_pressure;Samples;Min_cycle;Max_cycle;Signal;HPM_P1;HPM_P2
2022/11/27 00:01:23;;;;;;;33.80;12.05;;;;;;;;;;5054192;28;20025;-67
2022/11/27 00:03:49;;;;;;;26.33;12.38;;;;;;;;;;5060522;28;20086;-66
2022/11/27 00:06:15;;;;;;;28.60;11.88;;;;;;;;;;5049869;28;20025;-65
2022/11/27 00:08:41;;;;;;;27.35;11.00;;;;;;;;;;5053520;28;20425;-65
2022/11/27 00:11:08;;;;;;;33.45;13.07;;;;;;;;;;5051965;28;20078;-68
2022/11/27 00:13:33;;;;;;;43.95;12.70;;;;;;;;;;5055552;28;20474;-69
2022/11/27 00:15:58;;;;;;;35.95;11.98;;;;;;;;;;5053876;28;20032;-68
2022/11/27 00:18:23;;;;;;;34.85;11.77;;;;;;;;;;5046440;28;20105;-66
2022/11/27 00:20:49;;;;;;;38.80;12.25;;;;;;;;;;5056342;28;20029;-67
2022/11/27 00:23:14;;;;;;;28.88;11.65;;;;;;;;;;5051294;28;20032;-67
2022/11/27 00:25:39;;;;;;;32.33;11.02;;;;;;;;;;5059889;28;20020;-65
2022/11/27 00:28:04;;;;;;;30.13;11.63;;;;;;;;;;5047163;28;20074;-68
2022/11/27 00:30:29;;;;;;;34.70;13.10;;;;;;;;;;5048369;28;20028;-66
2022/11/27 00:32:55;;;;;;;31.90;11.52;;;;;;;;;;5048419;28;20108;-70
2022/11/27 00:35:20;;;;;;;37.47;13.30;;;;;;;;;;5052586;28;20025;-67
2022/11/27 00:37:45;;;;;;;29.98;10.98;;;;;;;;;;5047844;28;20079;-66
2022/11/27 00:40:11;;;;;;;42.25;14.07;;;;;;;;;;5048466;28;20656;-67
2022/11/27 00:42:36;;;;;;;28.95;13.85;;;;;;;;;;5048157;28;20025;-65
2022/11/27 00:45:01;;;;;;;37.53;15.52;;;;;;;;;;5061494;28;20040;-68
2022/11/27 00:47:26;;;;;;;46.80;14.32;;;;;;;;;;5048442;28;20096;-67
2022/11/27 00:49:51;;;;;;;45.17;15.43;;;;;;;;;;5054808;28;20035;-69
2022/11/27 00:52:17;;;;;;;38.90;15.38;;;;;;;;;;5057625;28;20017;-68
2022/11/27 00:54:42;;;;;;;49.80;14.70;;;;;;;;;;5054528;28;20112;-69
2022/11/27 00:57:07;;;;;;;34.88;14.85;;;;;;;;;;5059109;28;20100;-67
2022/11/27 00:59:32;;;;;;;36.90;14.10;;;;;;;;;;5044848;28;20084;-69
2022/11/27 01:01:58;;;;;;;40.00;13.95;;;;;;;;;;5052070;28;20028;-66
2022/11/27 01:04:23;;;;;;;34.22;13.38;;;;;;;;;;5047501;28;20025;-68
2022/11/27 01:06:48;;;;;;;35.95;12.63;;;;;;;;;;5047740;28;20470;-68
2022/11/27 01:09:14;;;;;;;35.15;13.80;;;;;;;;;;5047992;28;20017;-67
2022/11/27 01:11:39;;;;;;;30.08;13.27;;;;;;;;;;5047937;28;20029;-68
2022/11/27 01:14:05;;;;;;;31.75;12.70;;;;;;;;;;5061297;28;20041;-66
2022/11/27 01:16:31;;;;;;;23.60;11.75;;;;;;;;;;5047548;28;20027;-69
2022/11/27 01:18:58;;;;;;;27.20;12.05;;;;;;;;;;5049203;28;20021;-67
2022/11/27 01:21:23;;;;;;;32.25;10.48;;;;;;;;;;5047032;28;20013;-68
2022/11/27 01:23:49;;;;;;;28.48;10.98;;;;;;;;;;5049591;28;20078;-66
2022/11/27 01:26:14;;;;;;;29.63;12.35;;;;;;;;;;5065004;28;20071;-65
2022/11/27 01:28:40;;;;;;;32.53;11.82;;;;;;;;;;5061782;28;20131;-68
2022/11/27 01:31:11;;;;;;;27.67;11.85;;;;;;;;;;5058420;28;20099;-67
2022/11/27 01:33:36;;;;;;;26.17;11.63;;;;;;;;;;5061067;28;20009;-66
2022/11/27 01:36:03;;;;;;;31.75;12.02;;;;;;;;;;5051482;28;20021;-68
2022/11/27 01:38:29;;;;;;;24.20;10.98;;;;;;;;;;5046357;28;20029;-67
2022/11/27 01:41:00;;;;;;;22.40;10.55;;;;;;;;;;5053805;28;20107;-64
2022/11/27 01:43:55;;;;;;;26.83;10.95;;;;;;;;;;5060127;28;20017;-64
2022/11/27 01:46:23;;;;;;;26.23;10.82;;;;;;;;;;5022955;28;20113;-66
2022/11/27 01:48:49;;;;;;;25.00;9.63;;;;;;;;;;5049609;28;20100;-66
2022/11/27 01:51:15;;;;;;;25.70;10.68;;;;;;;;;;5050964;28;20426;-67
2022/11/27 01:53:40;;;;;;;23.88;9.98;;;;;;;;;;5053016;28;20487;-67
2022/11/27 01:56:07;;;;;;;27.95;9.88;;;;;;;;;;5063005;28;20039;-66
2022/11/27 01:58:33;;;;;;;26.35;11.18;;;;;;;;;;5066471;28;20039;-65
2022/11/27 02:00:59;;;;;;;29.33;11.05;;;;;;;;;;5062568;28;20037;-65
2022/11/27 02:03:24;;;;;;;24.63;10.55;;;;;;;;;;5050760;28;20036;-65
2022/11/27 02:05:49;;;;;;;25.80;10.85;;;;;;;;;;5050707;28;20017;-67
2022/11/27 02:08:15;;;;;;;24.02;10.90;;;;;;;;;;5051962;28;20491;-68
2022/11/27 02:10:52;;;;;;;35.35;11.80;;;;;;;;;;5062022;28;20381;-66
2022/11/27 02:13:17;;;;;;;28.95;10.85;;;;;;;;;;5050862;28;20033;-66
2022/11/27 02:15:44;;;;;;;27.00;11.70;;;;;;;;;;5060769;28;20020;-65
2022/11/27 02:18:13;;;;;;;21.60;10.80;;;;;;;;;;5054035;28;20174;-65
2022/11/27 02:20:47;;;;;;;28.38;10.93;;;;;;;;;;5060850;28;20032;-66
2022/11/27 02:23:21;;;;;;;29.60;10.95;;;;;;;;;;5044237;28;20024;-66
2022/11/27 02:25:48;;;;;;;39.65;11.20;;;;;;;;;;5060839;28;20013;-72
2022/11/27 02:28:23;;;;;;;29.70;11.57;;;;;;;;;;5045172;28;20033;-68
2022/11/27 02:30:56;;;;;;;26.63;10.98;;;;;;;;;;5050205;28;20022;-68
2022/11/27 02:33:22;;;;;;;31.02;11.35;;;;;;;;;;5049880;28;20501;-67
2022/11/27 02:35:50;;;;;;;31.83;11.95;;;;;;;;;;5063381;28;20024;-67
2022/11/27 02:38:19;;;;;;;34.08;13.27;;;;;;;;;;5059456;28;20013;-66
2022/11/27 02:41:01;;;;;;;29.10;12.32;;;;;;;;;;5057213;28;20044;-68
2022/11/27 02:43:32;;;;;;;31.67;12.27;;;;;;;;;;5058284;28;20021;-67
2022/11/27 02:45:58;;;;;;;28.83;13.02;;;;;;;;;;5056009;28;20021;-69
2022/11/27 02:48:33;;;;;;;26.10;12.07;;;;;;;;;;5057563;28;20386;-68
2022/11/27 02:50:58;;;;;;;30.92;11.98;;;;;;;;;;5058126;28;20094;-65
2022/11/27 02:53:28;;;;;;;33.88;12.68;;;;;;;;;;5056128;28;20382;-67
2022/11/27 02:55:54;;;;;;;31.05;11.27;;;;;;;;;;5058215;28;20066;-67
2022/11/27 02:58:21;;;;;;;25.65;11.70;;;;;;;;;;5056770;28;20029;-65
2022/11/27 03:00:46;;;;;;;28.92;10.90;;;;;;;;;;5050790;28;20508;-66
2022/11/27 03:03:14;;;;;;;25.98;10.77;;;;;;;;;;5049551;28;20025;-68
2022/11/27 03:05:42;;;;;;;20.65;10.30;;;;;;;;;;5050529;28;20046;-66
2022/11/27 03:08:19;;;;;;;24.38;10.30;;;;;;;;;;5051796;28;20096;-67
2022/11/27 03:11:00;;;;;;;35.88;12.65;;;;;;;;;;5059817;28;20088;-65
2022/11/27 03:13:26;;;;;;;32.15;11.25;;;;;;;;;;5063277;28;20122;-68
2022/11/27 03:15:51;;;;;;;22.63;11.50;;;;;;;;;;5062657;28;20048;-68
2022/11/27 03:18:25;;;;;;;43.33;11.55;;;;;;;;;;5049843;28;20055;-66
2022/11/27 03:20:55;;;;;;;29.75;11.57;;;;;;;;;;5063360;28;20398;-65
2022/11/27 03:23:20;;;;;;;33.95;10.25;;;;;;;;;;5044376;28;20116;-67
2022/11/27 03:25:46;;;;;;;25.50;12.60;;;;;;;;;;5049796;28;20013;-65
2022/11/27 03:28:12;;;;;;;28.90;10.35;;;;;;;;;;5049524;28;20367;-65
2022/11/27 03:30:39;;;;;;;46.20;11.90;;;;;;;;;;5063051;28;20049;-64
2022/11/27 03:33:04;;;;;;;27.70;10.43;;;;;;;;;;5049386;28;20035;-66
2022/11/27 03:35:30;;;;;;;28.20;12.60;;;;;;;;;;5062611;28;20095;-66
2022/11/27 03:37:56;;;;;;;33.30;12.68;;;;;;;;;;5054917;28;20035;-65
2022/11/27 03:40:26;;;;;;;33.80;12.55;;;;;;;;;;5049627;28;20029;-67
2022/11/27 03:43:00;;;;;;;34.45;12.20;;;;;;;;;;5036349;28;20028;-69
2022/11/27 03:45:28;;;;;;;32.50;12.80;;;;;;;;;;5048907;28;20105;-68
2022/11/27 03:47:53;;;;;;;28.83;13.77;;;;;;;;;;5048378;28;20060;-68
2022/11/27 03:50:19;;;;;;;25.58;11.82;;;;;;;;;;5062640;28;20273;-67
2022/11/27 03:52:53;;;;;;;40.20;12.65;;;;;;;;;;5049011;28;20020;-68
2022/11/27 03:55:18;;;;;;;34.70;12.68;;;;;;;;;;5048919;28;20035;-65
2022/11/27 03:57:55;;;;;;;32.13;12.63;;;;;;;;;;5048783;28;20104;-67
2022/11/27 04:00:21;;;;;;;34.50;12.55;;;;;;;;;;5048784;28;20407;-68
2022/11/27 04:02:48;;;;;;;33.88;12.52;;;;;;;;;;5047925;28;20048;-69
2022/11/27 04:05:14;;;;;;;32.45;11.25;;;;;;;;;;5062308;28;20021;-66
2022/11/27 04:07:39;;;;;;;24.83;10.40;;;;;;;;;;5048142;28;20497;-65
2022/11/27 04:10:05;;;;;;;25.10;11.35;;;;;;;;;;5062137;28;20017;-67
2022/11/27 04:12:30;;;;;;;29.33;12.68;;;;;;;;;;5048941;28;20430;-66
2022/11/27 04:14:55;;;;;;;29.70;12.90;;;;;;;;;;5048760;28;20010;-66
2022/11/27 04:17:20;;;;;;;26.60;13.35;;;;;;;;;;5048455;28;20604;-65
2022/11/27 04:19:46;;;;;;;32.67;13.18;;;;;;;;;;5048224;28;20029;-66
2022/11/27 04:22:11;;;;;;;28.30;12.57;;;;;;;;;;5041638;28;20025;-66
2022/11/27 04:24:36;;;;;;;30.67;13.60;;;;;;;;;;5052983;28;20069;-67
2022/11/27 04:27:01;;;;;;;25.55;13.00;;;;;;;;;;5052258;28;20024;-67
2022/11/27 04:29:26;;;;;;;40.20;12.77;;;;;;;;;;5054106;28;20062;-67
2022/11/27 04:31:52;;;;;;;32.35;13.88;;;;;;;;;;5057092;28;20023;-68
2022/11/27 04:34:17;;;;;;;29.23;13.15;;;;;;;;;;5047808;28;20021;-65
2022/11/27 04:36:42;;;;;;;26.08;13.10;;;;;;;;;;5058027;28;20108;-66
2022/11/27 04:39:07;;;;;;;23.33;12.25;;;;;;;;;;5051886;28;20021;-65
2022/11/27 04:41:33;;;;;;;25.23;12.75;;;;;;;;;;5048318;28;20114;-65
2022/11/27 04:43:58;;;;;;;24.35;13.20;;;;;;;;;;5048054;28;20028;-67
2022/11/27 04:46:23;;;;;;;28.90;12.38;;;;;;;;;;5057204;28;20501;-67
2022/11/27 04:48:48;;;;;;;28.83;13.20;;;;;;;;;;5051899;28;20029;-68
2022/11/27 04:51:13;;;;;;;26.30;13.38;;;;;;;;;;5048423;28;20021;-69
2022/11/27 04:53:39;;;;;;;24.98;12.07;;;;;;;;;;5061492;28;20032;-66
2022/11/27 04:56:04;;;;;;;27.05;12.52;;;;;;;;;;5057178;28;20024;-67
2022/11/27 04:58:29;;;;;;;23.95;12.30;;;;;;;;;;5052509;28;20084;-65
2022/11/27 05:00:54;;;;;;;32.85;12.32;;;;;;;;;;5052867;28;20488;-69
2022/11/27 05:03:20;;;;;;;25.65;11.10;;;;;;;;;;5051823;28;20028;-67
2022/11/27 05:05:52;;;;;;;33.35;13.25;;;;;;;;;;5059473;28;20096;-65
2022/11/27 05:08:17;;;;;;;31.23;12.32;;;;;;;;;;5051691;28;20505;-68
2022/11/27 05:10:43;;;;;;;35.83;13.27;;;;;;;;;;5048037;28;20029;-69
2022/11/27 05:13:08;;;;;;;32.28;12.10;;;;;;;;;;5047296;28;20017;-66
2022/11/27 05:15:33;;;;;;;28.63;12.40;;;;;;;;;;5056927;28;20025;-66
2022/11/27 05:17:58;;;;;;;28.85;12.70;;;;;;;;;;5051620;28;20061;-64
2022/11/27 05:20:24;;;;;;;33.97;12.80;;;;;;;;;;5047814;28;20336;-67
2022/11/27 05:22:49;;;;;;;33.88;12.30;;;;;;;;;;5042620;28;20506;-66
2022/11/27 05:25:14;;;;;;;32.55;13.23;;;;;;;;;;5047825;28;20085;-66
2022/11/27 05:27:39;;;;;;;30.77;12.88;;;;;;;;;;5048239;28;20028;-66
2022/11/27 05:30:05;;;;;;;22.30;10.70;;;;;;;;;;5058614;28;20029;-66
2022/11/27 05:32:30;;;;;;;31.35;12.90;;;;;;;;;;5047382;28;20367;-67
2022/11/27 05:34:55;;;;;;;36.47;11.63;;;;;;;;;;5047579;28;20039;-66
2022/11/27 05:37:21;;;;;;;27.40;11.40;;;;;;;;;;5060832;28;20020;-68
2022/11/27 05:39:46;;;;;;;31.42;12.70;;;;;;;;;;5047685;28;20029;-67
2022/11/27 05:42:11;;;;;;;25.10;11.07;;;;;;;;;;5047914;28;20025;-67
2022/11/27 05:44:36;;;;;;;26.30;11.60;;;;;;;;;;5055651;28;20021;-65
2022/11/27 05:47:01;;;;;;;28.05;12.13;;;;;;;;;;5052622;28;20016;-67
2022/11/27 05:49:27;;;;;;;29.25;12.00;;;;;;;;;;5047309;28;20067;-66
2022/11/27 05:51:52;;;;;;;23.55;11.73;;;;;;;;;;5046987;28;20120;-68
2022/11/27 05:54:18;;;;;;;23.48;11.52;;;;;;;;;;5059432;28;20032;-67
2022/11/27 05:56:43;;;;;;;25.90;10.57;;;;;;;;;;5060680;28;20494;-66
2022/11/27 05:59:09;;;;;;;38.83;13.68;;;;;;;;;;5047580;28;20471;-67
2022/11/27 06:01:34;;;;;;;31.52;13.18;;;;;;;;;;5047789;28;20101;-67
2022/11/27 06:04:00;;;;;;;33.72;12.10;;;;;;;;;;5045632;28;20468;-66
2022/11/27 06:06:25;;;;;;;30.73;11.45;;;;;;;;;;5047429;28;20484;-66
2022/11/27 06:08:50;;;;;;;33.33;11.70;;;;;;;;;;5056069;28;20012;-67
2022/11/27 06:11:19;;;;;;;34.17;11.13;;;;;;;;;;5057501;28;20017;-66
2022/11/27 06:13:45;;;;;;;30.10;11.13;;;;;;;;;;5051164;28;20198;-68
2022/11/27 06:16:12;;;;;;;33.47;13.48;;;;;;;;;;5064417;28;20574;-68
2022/11/27 06:18:37;;;;;;;28.88;12.10;;;;;;;;;;5054958;28;20036;-66
2022/11/27 06:21:10;;;;;;;26.58;11.77;;;;;;;;;;5050181;28;20039;-67
2022/11/27 06:23:35;;;;;;;29.27;12.63;;;;;;;;;;5049116;28;20021;-67
2022/11/27 06:26:10;;;;;;;34.60;12.15;;;;;;;;;;5058833;28;20040;-68
2022/11/27 06:28:35;;;;;;;30.58;12.38;;;;;;;;;;5053925;28;20095;-66
2022/11/27 06:31:04;;;;;;;30.50;12.02;;;;;;;;;;5064219;28;20071;-67
2022/11/27 06:33:29;;;;;;;26.80;12.32;;;;;;;;;;5050665;28;20157;-66
2022/11/27 06:35:54;;;;;;;34.38;13.43;;;;;;;;;;5051582;28;20172;-64
2022/11/27 06:38:19;;;;;;;32.53;12.82;;;;;;;;;;5047732;28;20043;-69
2022/11/27 06:40:44;;;;;;;31.25;12.30;;;;;;;;;;5047346;28;20016;-65
2022/11/27 06:43:10;;;;;;;27.13;11.65;;;;;;;;;;5049899;28;20339;-68
2022/11/27 06:45:35;;;;;;;27.38;11.38;;;;;;;;;;5048164;28;20017;-65
2022/11/27 06:48:00;;;;;;;28.60;12.05;;;;;;;;;;5048510;28;20033;-64
2022/11/27 06:50:25;;;;;;;29.63;11.55;;;;;;;;;;5049539;28;20025;-66
2022/11/27 06:52:51;;;;;;;25.83;11.80;;;;;;;;;;5041315;28;20021;-66
2022/11/27 06:55:16;;;;;;;42.33;13.25;;;;;;;;;;5041692;28;20067;-66
2022/11/27 06:57:41;;;;;;;37.05;12.60;;;;;;;;;;5042070;28;20127;-67
2022/11/27 07:00:07;;;;;;;33.15;12.80;;;;;;;;;;5043001;28;20037;-65
2022/11/27 07:02:32;;;;;;;30.90;12.70;;;;;;;;;;5041078;28;20401;-67
2022/11/27 07:04:57;;;;;;;33.70;12.27;;;;;;;;;;5041435;28;20029;-65
2022/11/27 07:07:22;;;;;;;33.33;11.73;;;;;;;;;;5042283;28;20021;-67
2022/11/27 07:09:47;;;;;;;28.67;12.15;;;;;;;;;;5042821;28;20118;-66
2022/11/27 07:12:13;;;;;;;29.42;12.45;;;;;;;;;;5043074;28;20028;-65
2022/11/27 07:14:38;;;;;;;30.35;11.60;;;;;;;;;;5042500;28;20029;-64
2022/11/27 07:17:03;;;;;;;39.25;12.07;;;;;;;;;;5042150;28;20021;-67
2022/11/27 07:19:28;;;;;;;34.58;12.23;;;;;;;;;;5041771;28;20623;-69
2022/11/27 07:21:54;;;;;;;28.60;11.45;;;;;;;;;;5041354;28;20673;-69
2022/11/27 07:24:19;;;;;;;37.10;10.55;;;;;;;;;;5039444;28;20048;-67
2022/11/27 07:26:44;;;;;;;28.25;13.00;;;;;;;;;;5042525;28;20128;-67
2022/11/27 07:29:09;;;;;;;33.03;10.80;;;;;;;;;;5040375;28;20021;-63
2022/11/27 07:31:35;;;;;;;29.80;12.15;;;;;;;;;;5041292;28;21524;-63
2022/11/27 07:34:00;;;;;;;35.85;12.52;;;;;;;;;;5039649;28;20466;-65
2022/11/27 07:36:27;;;;;;;44.78;12.50;;;;;;;;;;5042358;28;20108;-66
2022/11/27 07:38:52;;;;;;;34.40;12.57;;;;;;;;;;5050123;28;20441;-64
2022/11/27 07:41:17;;;;;;;38.08;13.85;;;;;;;;;;5040081;28;20171;-67
2022/11/27 07:43:43;;;;;;;35.50;12.52;;;;;;;;;;5044793;28;20227;-67
2022/11/27 07:46:16;;;;;;;30.10;12.98;;;;;;;;;;5042302;28;20119;-67
2022/11/27 07:48:41;;;;;;;28.33;12.27;;;;;;;;;;5042449;28;20029;-68
2022/11/27 07:51:07;;;;;;;32.78;12.23;;;;;;;;;;5042568;28;20029;-68
2022/11/27 07:53:34;;;;;;;26.95;10.88;;;;;;;;;;5041671;28;20668;-68
2022/11/27 07:55:59;;;;;;;29.58;12.95;;;;;;;;;;5041278;28;20167;-67
2022/11/27 07:58:25;;;;;;;29.65;11.40;;;;;;;;;;5041753;28;20121;-67
2022/11/27 08:00:50;;;;;;;34.47;11.98;;;;;;;;;;5040916;28;20100;-70
2022/11/27 08:03:15;;;;;;;31.13;10.50;;;;;;;;;;5041707;28;20059;-67
2022/11/27 08:05:40;;;;;;;43.45;13.32;;;;;;;;;;5042557;28;20043;-68
2022/11/27 08:08:06;;;;;;;29.23;11.93;;;;;;;;;;5042210;28;20029;-68
2022/11/27 08:10:34;;;;;;;25.67;11.85;;;;;;;;;;5055538;28;20066;-66
2022/11/27 08:13:00;;;;;;;23.85;10.88;;;;;;;;;;5047802;28;20025;-68
2022/11/27 08:15:25;;;;;;;26.92;11.23;;;;;;;;;;5049111;28;20447;-67
2022/11/27 08:17:50;;;;;;;35.75;11.98;;;;;;;;;;5044622;28;20070;-67
2022/11/27 08:20:15;;;;;;;26.63;11.07;;;;;;;;;;5045502;28;20060;-68
2022/11/27 08:22:41;;;;;;;22.65;10.88;;;;;;;;;;5048229;28;20096;-67
2022/11/27 08:25:06;;;;;;;22.38;10.85;;;;;;;;;;5047137;28;20482;-67
2022/11/27 08:27:32;;;;;;;26.30;11.48;;;;;;;;;;5048662;28;20041;-69
2022/11/27 08:29:58;;;;;;;31.70;12.27;;;;;;;;;;5046268;28;20110;-70
2022/11/27 08:32:23;;;;;;;32.10;13.32;;;;;;;;;;5046506;28;20105;-70
2022/11/27 08:34:48;;;;;;;30.27;12.82;;;;;;;;;;5048413;28;20115;-68
2022/11/27 08:37:13;;;;;;;21.85;10.82;;;;;;;;;;5048705;28;20016;-66
2022/11/27 08:39:39;;;;;;;24.13;11.35;;;;;;;;;;5048717;28;20035;-68
2022/11/27 08:42:04;;;;;;;22.67;10.18;;;;;;;;;;5048267;28;20573;-67
2022/11/27 08:44:29;;;;;;;33.17;13.13;;;;;;;;;;5052679;28;20044;-68
2022/11/27 08:46:54;;;;;;;36.60;13.05;;;;;;;;;;5048364;28;20544;-67
2022/11/27 08:49:19;;;;;;;31.33;12.13;;;;;;;;;;5047257;28;20566;-67
2022/11/27 08:51:45;;;;;;;25.52;11.00;;;;;;;;;;5047117;28;20028;-67
2022/11/27 08:54:10;;;;;;;24.88;11.10;;;;;;;;;;5046247;28;20403;-67
2022/11/27 08:56:35;;;;;;;30.35;12.40;;;;;;;;;;5047567;28;20029;-66
2022/11/27 08:59:01;;;;;;;23.83;11.18;;;;;;;;;;5048176;28;20104;-67
2022/11/27 09:01:28;;;;;;;32.38;12.68;;;;;;;;;;5045449;28;20082;-69
2022/11/27 09:03:53;;;;;;;30.58;10.85;;;;;;;;;;5046878;28;20025;-70
2022/11/27 09:06:20;;;;;;;25.48;11.07;;;;;;;;;;5046499;28;20047;-68
2022/11/27 09:08:45;;;;;;;26.20;10.35;;;;;;;;;;5047489;28;20023;-70
2022/11/27 09:11:11;;;;;;;25.33;10.32;;;;;;;;;;5046869;28;20096;-66
2022/11/27 09:13:38;;;;;;;19.70;9.40;;;;;;;;;;5047247;28;20201;-68
2022/11/27 09:16:04;;;;;;;18.60;9.55;;;;;;;;;;5047675;28;20490;-68
2022/11/27 09:18:30;;;;;;;19.33;9.95;;;;;;;;;;5047367;28;20056;-68
2022/11/27 09:21:01;;;;;;;21.70;9.27;;;;;;;;;;5048832;28;20021;-69
2022/11/27 09:23:27;;;;;;;25.13;9.70;;;;;;;;;;5045083;28;20056;-68
2022/11/27 09:25:52;;;;;;;27.10;9.27;;;;;;;;;;5050682;28;20045;-68
2022/11/27 09:28:17;;;;;;;18.77;9.57;;;;;;;;;;5045935;28;20021;-70
2022/11/27 09:30:43;;;;;;;19.80;8.02;;;;;;;;;;5049245;28;20028;-65
2022/11/27 09:33:08;;;;;;;22.55;8.48;;;;;;;;;;5053035;28;20115;-68
2022/11/27 09:35:35;;;;;;;17.25;7.72;;;;;;;;;;5057066;28;20024;-68
2022/11/27 09:38:00;;;;;;;16.02;7.90;;;;;;;;;;5042751;28;20024;-68
2022/11/27 09:40:26;;;;;;;19.50;7.43;;;;;;;;;;5048747;28;20412;-68
2022/11/27 09:43:01;;;;;;;15.32;6.88;;;;;;;;;;5059460;28;20475;-69
2022/11/27 09:45:27;;;;;;;15.98;6.38;;;;;;;;;;5052806;28;20094;-68
2022/11/27 09:47:55;;;;;;;16.65;7.13;;;;;;;;;;5051137;28;20107;-66
2022/11/27 09:50:26;;;;;;;14.02;7.13;;;;;;;;;;5049594;28;20581;-68
2022/11/27 09:52:51;;;;;;;12.32;6.20;;;;;;;;;;5050866;28;20072;-66
2022/11/27 09:55:24;;;;;;;11.52;5.35;;;;;;;;;;5051490;28;20475;-66
2022/11/27 09:57:55;;;;;;;9.70;5.45;;;;;;;;;;5050381;28;20380;-69
2022/11/27 10:00:21;;;;;;;14.45;6.40;;;;;;;;;;5047936;28;20021;-68
2022/11/27 10:02:47;;;;;;;9.60;4.90;;;;;;;;;;5046827;28;20029;-67
2022/11/27 10:05:18;;;;;;;19.70;6.18;;;;;;;;;;5064654;28;20019;-69
2022/11/27 10:07:58;;;;;;;15.80;5.82;;;;;;;;;;5050698;28;20056;-65
2022/11/27 10:10:43;;;;;;;15.55;6.28;;;;;;;;;;5051304;28;20020;-69
2022/11/27 10:13:08;;;;;;;10.25;4.90;;;;;;;;;;5045800;28;20116;-65
2022/11/27 10:15:52;;;;;;;13.45;6.00;;;;;;;;;;5050999;28;20056;-67
2022/11/27 10:18:35;;;;;;;13.10;5.53;;;;;;;;;;5050830;28;20079;-69
2022/11/27 10:21:05;;;;;;;14.27;5.10;;;;;;;;;;5052129;28;20025;-70
2022/11/27 10:23:33;;;;;;;13.77;6.20;;;;;;;;;;5045245;28;20040;-69
2022/11/27 10:26:01;;;;;;;14.23;6.45;;;;;;;;;;5046856;28;20022;-68
2022/11/27 10:28:41;;;;;;;20.55;6.65;;;;;;;;;;5052532;28;20020;-65
2022/11/27 10:31:16;;;;;;;10.60;5.38;;;;;;;;;;5067114;28;20032;-68
2022/11/27 10:33:44;;;;;;;13.63;6.07;;;;;;;;;;5055939;28;20050;-68
2022/11/27 10:36:24;;;;;;;14.18;6.68;;;;;;;;;;5047172;28;20021;-66
2022/11/27 10:38:50;;;;;;;11.85;5.53;;;;;;;;;;5050014;28;20529;-66
2022/11/27 10:41:28;;;;;;;14.80;5.68;;;;;;;;;;5049420;28;20124;-69
2022/11/27 10:43:55;;;;;;;13.57;5.90;;;;;;;;;;5056762;28;20013;-68
2022/11/27 10:46:26;;;;;;;11.18;5.07;;;;;;;;;;5060391;28;20036;-69
2022/11/27 10:48:52;;;;;;;13.82;5.10;;;;;;;;;;5048444;28;20041;-70
2022/11/27 10:51:19;;;;;;;15.43;6.30;;;;;;;;;;5051434;28;20111;-67
2022/11/27 10:53:48;;;;;;;12.52;5.60;;;;;;;;;;5048979;28;20021;-67
2022/11/27 10:56:25;;;;;;;15.65;5.18;;;;;;;;;;5048507;28;20027;-67
2022/11/27 10:58:55;;;;;;;15.00;5.25;;;;;;;;;;5047414;28;20029;-68
2022/11/27 11:01:21;;;;;;;19.63;5.55;;;;;;;;;;5048935;28;20082;-69
2022/11/27 11:03:47;;;;;;;13.10;5.00;;;;;;;;;;5046394;28;20048;-66
2022/11/27 11:06:23;;;;;;;13.75;4.75;;;;;;;;;;5050270;28;20151;-67
2022/11/27 11:09:07;;;;;;;16.80;5.30;;;;;;;;;;5051386;28;20421;-68
2022/11/27 11:11:32;;;;;;;10.80;4.90;;;;;;;;;;5047796;28;20441;-67
2022/11/27 11:13:58;;;;;;;11.55;5.50;;;;;;;;;;5049007;28;20021;-66
2022/11/27 11:16:26;;;;;;;11.18;4.85;;;;;;;;;;5050099;28;20078;-67
2022/11/27 11:18:52;;;;;;;13.30;5.17;;;;;;;;;;5054825;28;20075;-66
2022/11/27 11:21:21;;;;;;;11.48;4.70;;;;;;;;;;5047829;28;20060;-67
2022/11/27 11:23:52;;;;;;;14.30;4.78;;;;;;;;;;5046127;28;20428;-67
2022/11/27 11:26:26;;;;;;;12.52;4.70;;;;;;;;;;5047335;28;20028;-69
2022/11/27 11:28:56;;;;;;;19.33;6.10;;;;;;;;;;5046656;28;20024;-68
2022/11/27 11:31:26;;;;;;;12.77;5.15;;;;;;;;;;5048950;28;20410;-69
2022/11/27 11:33:54;;;;;;;12.90;5.65;;;;;;;;;;5058006;28;20082;-67
2022/11/27 11:36:20;;;;;;;10.55;5.72;;;;;;;;;;5045387;28;20051;-66
2022/11/27 11:38:46;;;;;;;13.80;6.22;;;;;;;;;;5047635;28;20526;-65
2022/11/27 11:41:12;;;;;;;13.68;6.50;;;;;;;;;;5053530;28;20047;-65
2022/11/27 11:43:38;;;;;;;13.30;5.75;;;;;;;;;;5049090;28;20028;-67
2022/11/27 11:46:14;;;;;;;10.95;5.20;;;;;;;;;;5062557;28;20020;-66
2022/11/27 11:48:39;;;;;;;14.50;5.38;;;;;;;;;;5047578;28;20021;-67
2022/11/27 11:51:04;;;;;;;14.93;6.20;;;;;;;;;;5048517;28;20525;-68
2022/11/27 11:53:30;;;;;;;19.83;6.13;;;;;;;;;;5048780;28;20479;-68
2022/11/27 11:56:00;;;;;;;13.48;5.30;;;;;;;;;;5048446;28;20051;-67
2022/11/27 11:58:31;;;;;;;13.10;5.20;;;;;;;;;;5043642;28;20028;-67
2022/11/27 12:01:16;;;;;;;11.60;5.75;;;;;;;;;;5051912;28;20072;-67
2022/11/27 12:03:53;;;;;;;17.73;5.45;;;;;;;;;;5036206;28;20017;-68
2022/11/27 12:06:30;;;;;;;12.52;5.65;;;;;;;;;;5048028;28;20140;-67
2022/11/27 12:08:55;;;;;;;14.13;6.07;;;;;;;;;;5050137;28;20110;-67
2022/11/27 12:11:31;;;;;;;17.65;6.13;;;;;;;;;;5059242;28;20146;-66
2022/11/27 12:14:00;;;;;;;16.00;5.70;;;;;;;;;;5054465;28;20021;-68
2022/11/27 12:16:38;;;;;;;18.02;6.60;;;;;;;;;;5048201;28;20027;-67
2022/11/27 12:19:22;;;;;;;14.82;6.10;;;;;;;;;;5052163;28;20029;-68
2022/11/27 12:21:50;;;;;;;16.38;6.95;;;;;;;;;;5047536;28;20455;-67
2022/11/27 12:24:35;;;;;;;18.85;6.00;;;;;;;;;;5049736;28;20029;-67
2022/11/27 12:27:03;;;;;;;15.55;6.25;;;;;;;;;;5038167;28;20033;-68
2022/11/27 12:29:34;;;;;;;13.57;6.20;;;;;;;;;;5044730;28;20024;-67
2022/11/27 12:32:13;;;;;;;11.35;4.80;;;;;;;;;;5058066;28;20102;-68
2022/11/27 12:34:46;;;;;;;15.00;4.47;;;;;;;;;;5054664;28;20466;-67
2022/11/27 12:37:30;;;;;;;12.05;5.45;;;;;;;;;;5056082;28;20051;-66
2022/11/27 12:39:55;;;;;;;9.93;5.18;;;;;;;;;;5040618;28;20031;-66
2022/11/27 12:42:31;;;;;;;13.68;5.55;;;;;;;;;;5048049;28;20032;-69
2022/11/27 12:45:15;;;;;;;16.58;5.35;;;;;;;;;;5046396;28;20070;-67
2022/11/27 12:47:42;;;;;;;15.43;6.15;;;;;;;;;;5046789;28;20078;-68
2022/11/27 12:50:16;;;;;;;21.60;7.00;;;;;;;;;;5047642;28;20079;-67
2022/11/27 12:52:47;;;;;;;19.52;5.50;;;;;;;;;;5045563;28;20016;-67
2022/11/27 12:55:21;;;;;;;16.23;5.63;;;;;;;;;;5047691;28;20132;-67
2022/11/27 12:57:52;;;;;;;11.73;5.68;;;;;;;;;;5045577;28;20117;-69
2022/11/27 13:00:19;;;;;;;17.55;5.60;;;;;;;;;;5050687;28;20048;-65
2022/11/27 13:03:03;;;;;;;13.85;5.30;;;;;;;;;;5047306;28;20395;-68
2022/11/27 13:05:35;;;;;;;15.13;5.60;;;;;;;;;;5037563;28;20029;-70
2022/11/27 13:08:33;;;;;;;11.57;5.40;;;;;;;;;;5041154;28;20553;-69
2022/11/27 13:11:03;;;;;;;14.47;6.27;;;;;;;;;;5006159;28;20405;-68
2022/11/27 13:13:32;;;;;;;18.77;5.65;;;;;;;;;;5039879;28;20029;-67
2022/11/27 13:16:06;;;;;;;12.25;5.25;;;;;;;;;;5038049;28;20025;-66
2022/11/27 13:18:33;;;;;;;22.15;6.00;;;;;;;;;;5042530;28;20172;-67
2022/11/27 13:21:00;;;;;;;15.00;5.80;;;;;;;;;;5044787;28;20396;-68
2022/11/27 13:23:29;;;;;;;17.33;6.78;;;;;;;;;;5045229;28;20052;-68
2022/11/27 13:25:55;;;;;;;14.18;5.22;;;;;;;;;;5040971;28;20028;-68
2022/11/27 13:28:26;;;;;;;16.92;5.93;;;;;;;;;;5045200;28;20055;-66
2022/11/27 13:30:52;;;;;;;14.98;6.38;;;;;;;;;;5044324;28;20024;-67
2022/11/27 13:33:26;;;;;;;14.20;5.93;;;;;;;;;;5047461;28;20021;-68
2022/11/27 13:35:53;;;;;;;13.43;5.28;;;;;;;;;;5044237;28;20150;-68
2022/11/27 13:38:18;;;;;;;16.27;6.10;;;;;;;;;;5048435;28;20377;-66
2022/11/27 13:40:46;;;;;;;16.10;6.10;;;;;;;;;;5046160;28;20141;-67
2022/11/27 13:43:27;;;;;;;14.15;5.55;;;;;;;;;;5044343;28;20029;-68
2022/11/27 13:46:00;;;;;;;13.30;5.38;;;;;;;;;;5040612;28;20027;-68
2022/11/27 13:48:28;;;;;;;11.48;5.32;;;;;;;;;;5042781;28;20116;-66
2022/11/27 13:50:54;;;;;;;15.85;6.50;;;;;;;;;;5044306;28;20037;-67
2022/11/27 13:53:28;;;;;;;13.85;5.82;;;;;;;;;;5041409;28;20387;-67
2022/11/27 13:55:54;;;;;;;32.33;6.22;;;;;;;;;;5039405;28;20191;-68
2022/11/27 13:58:33;;;;;;;11.57;5.03;;;;;;;;;;5040942;28;20045;-67
2022/11/27 14:01:11;;;;;;;11.20;4.93;;;;;;;;;;5038988;28;20033;-68
2022/11/27 14:03:36;;;;;;;12.50;4.82;;;;;;;;;;5043649;28;20117;-67
2022/11/27 14:06:01;;;;;;;13.80;4.80;;;;;;;;;;5043440;28;20521;-67
2022/11/27 14:08:31;;;;;;;12.90;5.13;;;;;;;;;;5044395;28;20516;-68
2022/11/27 14:10:58;;;;;;;17.17;5.75;;;;;;;;;;5043978;28;20025;-67
2022/11/27 14:13:53;;;;;;;18.92;6.40;;;;;;;;;;5042466;28;20602;-67
2022/11/27 14:16:25;;;;;;;12.40;5.97;;;;;;;;;;5029758;28;20045;-67
2022/11/27 14:18:51;;;;;;;18.27;6.32;;;;;;;;;;5043281;28;20042;-66
2022/11/27 14:21:23;;;;;;;13.05;5.45;;;;;;;;;;5041574;28;20074;-67
2022/11/27 14:23:50;;;;;;;14.95;5.47;;;;;;;;;;5046224;28;20025;-66
2022/11/27 14:26:15;;;;;;;15.23;5.38;;;;;;;;;;5040507;28;20132;-68